createdAt,value
2018-02-21T00:02:36.168Z,2.17
2018-02-21T00:17:38.038Z,2.24
2018-02-21T00:32:35.940Z,2.32
2018-02-21T00:47:36.903Z,2.51
2018-02-21T01:02:36.012Z,2.60
2018-02-21T01:17:34.204Z,2.54
2018-02-21T01:32:35.143Z,2.11
2018-02-21T01:47:38.426Z,2.16
2018-02-21T02:02:37.338Z,2.20
2018-02-21T02:17:36.119Z,2.27
2018-02-21T02:32:34.946Z,2.07
2018-02-21T02:47:34.493Z,1.77
2018-02-21T03:02:35.638Z,1.45
2018-02-21T03:17:34.602Z,1.39
2018-02-21T03:32:34.584Z,1.31
2018-02-21T03:47:34.656Z,1.33
2018-02-21T04:02:34.773Z,1.38
2018-02-21T04:17:34.670Z,1.44
2018-02-21T04:32:34.627Z,1.53
2018-02-21T04:47:36.958Z,1.60
2018-02-21T05:02:35.376Z,1.56
2018-02-21T05:17:35.307Z,1.63
2018-02-21T05:32:35.215Z,1.74
2018-02-21T05:47:37.234Z,1.85
2018-02-21T06:02:34.802Z,2.07
2018-02-21T06:17:35.013Z,2.25
2018-02-21T06:32:34.589Z,2.38
2018-02-21T06:47:35.417Z,2.62
2018-02-21T07:02:35.377Z,2.83
2018-02-21T07:17:34.460Z,3.07
2018-02-21T07:32:34.502Z,3.19
2018-02-21T07:47:34.611Z,3.42
2018-02-21T08:02:36.650Z,3.65
2018-02-21T08:17:36.917Z,4.09
2018-02-21T08:32:34.796Z,4.29
2018-02-21T08:47:34.787Z,4.42
2018-02-21T09:32:35.092Z,4.80
2018-02-21T09:47:36.495Z,4.46
2018-02-21T10:17:34.875Z,4.26
2018-02-21T10:32:36.857Z,4.42
2018-02-21T10:47:35.278Z,4.76
2018-02-21T11:17:34.801Z,4.69
2018-02-21T11:47:34.425Z,5.29
2018-02-21T12:02:36.978Z,4.93
2018-02-21T12:17:37.742Z,4.42
2018-02-21T12:32:36.899Z,4.39
2018-02-21T12:47:35.051Z,4.36
2018-02-21T13:02:34.624Z,4.12
2018-02-21T13:17:34.770Z,4.01
2018-02-21T13:32:34.970Z,3.81
2018-02-21T13:47:35.019Z,3.75
2018-02-21T14:02:34.895Z,3.66
2018-02-21T14:17:41.305Z,3.67
2018-02-21T14:32:35.275Z,3.76
2018-02-21T14:47:37.054Z,3.64
2018-02-21T15:02:34.592Z,3.63
2018-02-21T15:17:35.158Z,3.67
2018-02-21T15:32:35.393Z,3.49
2018-02-21T15:47:35.458Z,3.41
2018-02-21T16:02:35.207Z,4.03
2018-02-21T16:17:37.597Z,3.47
2018-02-21T16:32:34.602Z,3.31
2018-02-21T16:47:34.569Z,3.29
2018-02-21T17:02:34.620Z,3.28
2018-02-21T17:17:36.241Z,3.25
2018-02-21T17:32:36.659Z,3.26
2018-02-21T17:47:35.757Z,3.21
2018-02-21T18:02:35.795Z,3.25
2018-02-21T18:17:36.982Z,3.18
2018-02-21T18:32:36.060Z,3.09
2018-02-21T18:47:40.654Z,3.09
2018-02-21T19:02:42.049Z,3.03
2018-02-21T19:17:35.422Z,3.05
2018-02-21T19:32:35.266Z,3.02
2018-02-21T19:47:35.240Z,2.97
2018-02-21T20:02:35.130Z,2.96
2018-02-21T20:17:36.474Z,2.95
2018-02-21T20:32:35.379Z,2.98
2018-02-21T20:47:34.497Z,2.98
2018-02-21T21:02:35.166Z,2.98
2018-02-21T21:17:36.407Z,2.87
2018-02-21T21:32:35.298Z,2.80
2018-02-21T21:47:36.671Z,2.79
2018-02-21T22:02:34.609Z,2.79
2018-02-21T22:17:37.022Z,2.74
2018-02-21T22:32:35.324Z,2.72
2018-02-21T22:47:34.905Z,2.73
2018-02-21T23:02:34.976Z,2.76
2018-02-21T23:17:39.874Z,2.78
2018-02-21T23:32:35.079Z,2.86
2018-02-21T23:47:35.171Z,2.80
